Time;durP1;ratioP1;P1;durP2;ratioP2;P2;SDS_P1;SDS_P2;PMS_P1;PMS_P2;Temp;Humidity;BMP_temperature;BMP_pressure;BME280_temperature;BME280_humidity;BME280_pressure;Samples;Min_cycle;Max_cycle;Signal;HPM_P1;HPM_P2
2022/03/25 00:00:44;;;;;;;28.35;21.52;;;27.80;70.80;;;;;;5141716;27;20065;-52
2022/03/25 00:03:10;;;;;;;24.70;22.13;;;27.80;71.10;;;;;;5140912;27;20112;-55
2022/03/25 00:05:37;;;;;;;24.40;21.98;;;27.80;71.10;;;;;;5142032;27;20333;-55
2022/03/25 00:08:04;;;;;;;25.40;21.73;;;27.80;71.20;;;;;;5141622;27;20035;-56
2022/03/25 00:10:35;;;;;;;25.60;22.00;;;27.80;71.00;;;;;;5142203;27;20027;-51
2022/03/25 00:13:02;;;;;;;26.77;23.08;;;27.80;71.20;;;;;;5143023;27;20384;-53
2022/03/25 00:15:28;;;;;;;29.75;23.00;;;27.80;71.00;;;;;;5141723;27;20308;-49
2022/03/25 00:17:55;;;;;;;27.38;23.75;;;27.80;71.20;;;;;;5141469;27;20314;-57
2022/03/25 00:20:22;;;;;;;33.00;23.65;;;27.80;71.10;;;;;;5141763;27;20027;-57
2022/03/25 00:22:48;;;;;;;26.10;23.48;;;27.80;71.50;;;;;;5140279;28;20022;-52
2022/03/25 00:25:16;;;;;;;26.33;23.52;;;27.80;71.30;;;;;;5138977;27;20047;-54
2022/03/25 00:27:43;;;;;;;27.35;24.40;;;27.80;71.20;;;;;;5127488;28;20069;-55
2022/03/25 00:30:10;;;;;;;28.52;23.83;;;27.80;71.20;;;;;;5127667;28;20035;-52
2022/03/25 00:32:37;;;;;;;28.40;25.40;;;27.80;71.30;;;;;;5127339;28;20035;-53
2022/03/25 00:35:05;;;;;;;30.40;24.45;;;27.80;71.20;;;;;;5127419;28;20031;-55
2022/03/25 00:37:31;;;;;;;28.77;25.70;;;27.80;71.20;;;;;;5127754;28;20047;-54
2022/03/25 00:39:58;;;;;;;33.92;26.42;;;27.80;71.60;;;;;;5127395;28;20023;-50
2022/03/25 00:42:25;;;;;;;30.15;26.85;;;27.80;71.80;;;;;;5127238;28;20033;-51
2022/03/25 00:44:51;;;;;;;30.67;26.42;;;27.80;72.30;;;;;;5127154;28;20031;-56
2022/03/25 00:47:18;;;;;;;32.03;27.05;;;27.70;72.10;;;;;;5126805;28;20023;-50
2022/03/25 00:49:45;;;;;;;30.70;26.48;;;27.70;72.40;;;;;;5127119;28;20076;-52
2022/03/25 00:52:12;;;;;;;31.80;28.63;;;27.70;71.90;;;;;;5126929;28;20208;-52
2022/03/25 00:54:39;;;;;;;36.85;27.92;;;27.70;72.10;;;;;;5127005;27;20027;-58
2022/03/25 00:57:05;;;;;;;31.95;28.42;;;27.70;71.80;;;;;;5126819;28;20027;-56
2022/03/25 00:59:32;;;;;;;33.35;28.55;;;27.70;71.70;;;;;;5127113;28;20033;-57
2022/03/25 01:02:00;;;;;;;31.20;27.63;;;27.70;71.90;;;;;;5126851;28;20319;-57
2022/03/25 01:04:27;;;;;;;32.15;27.92;;;27.70;71.60;;;;;;5127062;28;20023;-54
2022/03/25 01:06:54;;;;;;;31.95;28.65;;;27.70;71.70;;;;;;5126889;28;20389;-50
2022/03/25 01:09:21;;;;;;;34.83;27.77;;;27.70;71.40;;;;;;5126605;28;20028;-55
2022/03/25 01:11:52;;;;;;;35.22;28.52;;;27.70;71.90;;;;;;5126538;28;20034;-51
2022/03/25 01:14:19;;;;;;;31.48;28.27;;;27.70;71.70;;;;;;5126678;28;20039;-52
2022/03/25 01:16:45;;;;;;;33.05;29.52;;;27.70;71.60;;;;;;5126617;27;20081;-58
2022/03/25 01:19:12;;;;;;;33.47;28.38;;;27.70;71.70;;;;;;5126811;28;20018;-57
2022/03/25 01:21:39;;;;;;;38.38;29.52;;;27.70;71.90;;;;;;5126765;28;20036;-54
2022/03/25 01:24:06;;;;;;;32.05;28.30;;;27.70;72.00;;;;;;5126472;28;20077;-54
2022/03/25 01:26:33;;;;;;;36.38;29.38;;;27.60;71.60;;;;;;5126275;28;20062;-56
2022/03/25 01:29:00;;;;;;;43.50;35.53;;;27.60;71.80;;;;;;5126560;28;20061;-56
2022/03/25 01:31:26;;;;;;;35.70;31.35;;;27.70;72.00;;;;;;5126170;28;20030;-50
2022/03/25 01:33:53;;;;;;;35.53;31.73;;;27.60;72.30;;;;;;5126503;28;20035;-51
2022/03/25 01:36:20;;;;;;;47.35;38.70;;;27.70;71.90;;;;;;5126340;27;20065;-51
2022/03/25 01:38:47;;;;;;;46.75;32.80;;;27.60;72.20;;;;;;5125029;28;20028;-57
2022/03/25 01:41:17;;;;;;;40.80;33.65;;;27.60;71.90;;;;;;5126048;28;20364;-54
2022/03/25 01:43:51;;;;;;;37.55;33.47;;;27.60;72.10;;;;;;5126049;28;20012;-55
2022/03/25 01:46:18;;;;;;;39.72;32.70;;;27.60;72.10;;;;;;5125789;28;20311;-50
2022/03/25 01:48:44;;;;;;;46.85;33.03;;;27.60;72.10;;;;;;5125620;28;20125;-50
2022/03/25 01:51:13;;;;;;;39.28;33.67;;;27.60;71.90;;;;;;5125908;28;20036;-51
2022/03/25 01:53:40;;;;;;;39.20;34.25;;;27.60;71.40;;;;;;5125574;28;20323;-57
2022/03/25 01:56:07;;;;;;;40.15;32.20;;;27.50;71.50;;;;;;5125869;28;20023;-59
2022/03/25 01:58:33;;;;;;;38.47;32.55;;;27.50;71.20;;;;;;5125739;28;20031;-52
2022/03/25 02:01:03;;;;;;;37.63;33.20;;;27.50;71.30;;;;;;5124434;28;20024;-50
2022/03/25 02:03:31;;;;;;;36.75;33.10;;;27.50;71.20;;;;;;5125693;28;20028;-50
2022/03/25 02:05:59;;;;;;;37.13;32.97;;;27.50;70.90;;;;;;5125785;28;20055;-50
2022/03/25 02:08:25;;;;;;;38.97;34.63;;;27.50;71.00;;;;;;5125367;27;20229;-52
2022/03/25 02:10:52;;;;;;;38.40;33.15;;;27.50;71.20;;;;;;5125687;28;20086;-52
2022/03/25 02:13:20;;;;;;;37.75;33.85;;;27.50;71.30;;;;;;5125605;28;20016;-54
2022/03/25 02:15:49;;;;;;;38.95;34.75;;;27.50;71.30;;;;;;5125787;28;20036;-52
2022/03/25 02:18:18;;;;;;;38.20;33.30;;;27.50;71.40;;;;;;5107590;28;20028;-51
2022/03/25 02:20:46;;;;;;;38.85;33.75;;;27.50;71.10;;;;;;5126156;28;20051;-52
2022/03/25 02:23:13;;;;;;;40.95;33.60;;;27.50;71.40;;;;;;5125399;28;20024;-58
2022/03/25 02:25:41;;;;;;;37.45;33.60;;;27.50;71.30;;;;;;5125570;28;20099;-58
2022/03/25 02:28:08;;;;;;;37.35;33.45;;;27.50;71.20;;;;;;5125458;28;20227;-57
2022/03/25 02:30:37;;;;;;;37.65;33.75;;;27.50;71.20;;;;;;5125519;28;20024;-57
2022/03/25 02:33:05;;;;;;;39.42;35.17;;;27.40;71.20;;;;;;5124191;28;20102;-59
2022/03/25 02:35:50;;;;;;;37.58;33.78;;;27.40;71.20;;;;;;5125534;28;20019;-56
2022/03/25 02:38:19;;;;;;;38.55;34.72;;;27.40;71.40;;;;;;5125103;28;20042;-50
2022/03/25 02:40:46;;;;;;;39.05;35.28;;;27.40;71.40;;;;;;5125530;28;20295;-52
2022/03/25 02:43:13;;;;;;;37.67;33.97;;;27.40;71.20;;;;;;5124988;28;20034;-52
2022/03/25 02:45:40;;;;;;;38.83;34.78;;;27.40;71.10;;;;;;5125358;28;20031;-56
2022/03/25 02:48:08;;;;;;;39.80;35.78;;;27.40;71.30;;;;;;5124691;28;20327;-55
2022/03/25 02:50:35;;;;;;;38.08;34.45;;;27.40;71.20;;;;;;5124807;28;20036;-52
2022/03/25 02:53:02;;;;;;;38.55;35.03;;;27.30;71.30;;;;;;5123317;28;20032;-49
2022/03/25 02:55:29;;;;;;;39.10;35.30;;;27.30;71.00;;;;;;5124859;28;20051;-49
2022/03/25 02:57:56;;;;;;;39.58;35.50;;;27.40;71.30;;;;;;5124528;28;20043;-54
2022/03/25 03:00:25;;;;;;;37.70;33.95;;;27.40;71.30;;;;;;5124558;28;20020;-52
2022/03/25 03:02:52;;;;;;;38.83;35.13;;;27.40;71.30;;;;;;5124559;28;20027;-54
2022/03/25 03:05:19;;;;;;;41.08;36.85;;;27.40;71.10;;;;;;5124757;28;20047;-52
2022/03/25 03:07:46;;;;;;;39.22;35.53;;;27.40;71.30;;;;;;5124555;28;20023;-58
2022/03/25 03:10:13;;;;;;;39.90;36.10;;;27.30;71.30;;;;;;5124087;28;20057;-57
2022/03/25 03:12:41;;;;;;;39.08;35.22;;;27.30;71.40;;;;;;5124498;28;20024;-58
2022/03/25 03:15:10;;;;;;;39.53;35.85;;;27.30;71.50;;;;;;5124503;28;20072;-56
2022/03/25 03:17:36;;;;;;;38.35;34.85;;;27.30;71.30;;;;;;5124564;28;20082;-53
2022/03/25 03:20:04;;;;;;;40.55;36.40;;;27.30;71.50;;;;;;5124885;28;20304;-60
2022/03/25 03:22:31;;;;;;;39.13;35.28;;;27.30;71.40;;;;;;5123536;28;20073;-57
2022/03/25 03:24:58;;;;;;;39.42;35.65;;;27.30;71.40;;;;;;5124420;28;20306;-63
2022/03/25 03:27:25;;;;;;;40.60;36.60;;;27.30;71.50;;;;;;5124270;28;20035;-54
2022/03/25 03:29:51;;;;;;;39.33;35.38;;;27.30;71.50;;;;;;5124725;28;20180;-50
2022/03/25 03:32:18;;;;;;;39.30;35.15;;;27.30;71.50;;;;;;5124255;28;20053;-52
2022/03/25 03:34:45;;;;;;;38.90;35.05;;;27.30;71.30;;;;;;5124360;28;20351;-54
2022/03/25 03:37:12;;;;;;;37.75;33.92;;;27.30;71.50;;;;;;5124315;28;20027;-61
2022/03/25 03:39:38;;;;;;;36.92;33.45;;;27.30;71.60;;;;;;5124415;28;20019;-51
2022/03/25 03:42:05;;;;;;;37.53;33.92;;;27.30;71.60;;;;;;5124047;28;20110;-49
2022/03/25 03:44:32;;;;;;;37.85;34.05;;;27.30;71.40;;;;;;5124222;28;20086;-50
2022/03/25 03:46:58;;;;;;;36.70;32.88;;;27.30;71.50;;;;;;5124039;28;20361;-61
2022/03/25 03:49:25;;;;;;;36.78;33.35;;;27.30;71.50;;;;;;5124151;28;20042;-54
2022/03/25 03:51:51;;;;;;;36.95;33.35;;;27.30;72.10;;;;;;5124187;28;20031;-52
2022/03/25 03:54:18;;;;;;;36.25;32.70;;;27.30;71.90;;;;;;5124154;28;20027;-53
2022/03/25 03:56:44;;;;;;;36.85;33.22;;;27.30;71.60;;;;;;5123934;28;20027;-53
2022/03/25 03:59:11;;;;;;;36.25;32.63;;;27.30;71.90;;;;;;5124351;28;20031;-54
2022/03/25 04:01:38;;;;;;;36.92;33.22;;;27.30;71.90;;;;;;5125981;28;20028;-56
2022/03/25 04:04:05;;;;;;;37.50;33.50;;;27.30;71.80;;;;;;5127762;28;20361;-51
2022/03/25 04:06:32;;;;;;;35.65;31.63;;;27.30;71.90;;;;;;5127668;28;20065;-54
2022/03/25 04:08:59;;;;;;;35.03;31.30;;;27.30;71.80;;;;;;5128375;28;20043;-58
2022/03/25 04:11:25;;;;;;;36.88;33.28;;;27.30;71.70;;;;;;5127998;28;20254;-56
2022/03/25 04:13:53;;;;;;;37.25;33.33;;;27.30;72.50;;;;;;5128172;28;20019;-59
2022/03/25 04:16:22;;;;;;;34.80;31.40;;;27.30;72.30;;;;;;5128122;28;20219;-58
2022/03/25 04:18:49;;;;;;;37.05;33.45;;;27.30;72.70;;;;;;5128253;28;20314;-54
2022/03/25 04:21:16;;;;;;;35.08;31.85;;;27.30;72.50;;;;;;5127684;28;20039;-55
2022/03/25 04:23:42;;;;;;;36.75;33.05;;;27.30;72.30;;;;;;5128431;28;20299;-56
2022/03/25 04:26:09;;;;;;;35.58;32.10;;;27.30;72.30;;;;;;5127698;28;20039;-54
2022/03/25 04:28:36;;;;;;;34.83;31.40;;;27.30;72.20;;;;;;5128435;28;20319;-56
2022/03/25 04:31:02;;;;;;;35.17;31.88;;;27.30;72.10;;;;;;5127546;28;20031;-55
2022/03/25 04:33:31;;;;;;;34.30;31.13;;;27.30;72.00;;;;;;5127355;28;20087;-55
2022/03/25 04:35:58;;;;;;;35.15;31.52;;;27.30;71.80;;;;;;5127665;28;20031;-53
2022/03/25 04:38:24;;;;;;;35.45;31.83;;;27.30;71.50;;;;;;5127178;28;20032;-56
2022/03/25 04:40:51;;;;;;;33.97;30.55;;;27.30;71.90;;;;;;5127371;28;20072;-54
2022/03/25 04:43:18;;;;;;;32.70;29.60;;;27.30;71.80;;;;;;5127415;28;20274;-56
2022/03/25 04:45:44;;;;;;;34.15;31.00;;;27.30;72.00;;;;;;5127139;28;20216;-53
2022/03/25 04:48:11;;;;;;;33.70;30.30;;;27.30;71.50;;;;;;5126970;28;20371;-53
2022/03/25 04:50:38;;;;;;;32.90;29.63;;;27.30;71.80;;;;;;5127248;28;20095;-55
2022/03/25 04:53:05;;;;;;;33.60;30.38;;;27.30;71.50;;;;;;5127144;28;20065;-52
2022/03/25 04:55:32;;;;;;;34.35;30.95;;;27.20;71.60;;;;;;5127295;28;20303;-54
2022/03/25 04:57:59;;;;;;;33.28;30.20;;;27.20;71.70;;;;;;5126728;28;20032;-60
2022/03/25 05:00:26;;;;;;;34.35;30.80;;;27.30;72.00;;;;;;5127275;28;20012;-58
2022/03/25 05:02:53;;;;;;;33.15;29.77;;;27.20;71.70;;;;;;5126738;28;20023;-53
2022/03/25 05:05:19;;;;;;;33.38;30.20;;;27.30;72.10;;;;;;5127018;28;20023;-56
2022/03/25 05:07:47;;;;;;;34.42;30.98;;;27.30;72.30;;;;;;5126638;27;20038;-58
2022/03/25 05:10:15;;;;;;;33.85;30.67;;;27.20;73.20;;;;;;5126947;28;20031;-58
2022/03/25 05:12:44;;;;;;;34.60;30.80;;;27.20;73.10;;;;;;5126231;28;20035;-55
2022/03/25 05:15:11;;;;;;;34.50;30.67;;;27.20;73.70;;;;;;5126742;28;20073;-57
2022/03/25 05:17:49;;;;;;;33.55;30.30;;;27.20;73.10;;;;;;5126445;28;20354;-56
2022/03/25 05:20:17;;;;;;;33.72;30.40;;;27.30;72.80;;;;;;5126930;28;20020;-53
2022/03/25 05:22:45;;;;;;;32.75;29.55;;;27.20;72.80;;;;;;5126396;28;20028;-55
2022/03/25 05:25:12;;;;;;;33.65;30.38;;;27.20;73.20;;;;;;5126371;28;20059;-57
2022/03/25 05:27:47;;;;;;;32.78;29.70;;;27.20;74.10;;;;;;5126260;28;20103;-57
2022/03/25 05:30:14;;;;;;;32.90;29.80;;;27.20;74.40;;;;;;5126578;28;20043;-58
2022/03/25 05:32:42;;;;;;;33.67;30.25;;;27.20;74.70;;;;;;5125983;28;20036;-57
2022/03/25 05:35:10;;;;;;;32.72;29.40;;;27.20;74.30;;;;;;5126293;28;20028;-53
2022/03/25 05:37:38;;;;;;;33.72;30.45;;;27.20;74.40;;;;;;5126015;28;20030;-58
2022/03/25 05:40:07;;;;;;;32.92;29.67;;;27.20;74.10;;;;;;5126187;28;20032;-56
2022/03/25 05:42:34;;;;;;;32.17;28.98;;;27.20;74.10;;;;;;5125996;28;20079;-55
2022/03/25 05:45:03;;;;;;;33.22;30.02;;;27.20;74.20;;;;;;5126256;28;20116;-54
2022/03/25 05:47:29;;;;;;;33.25;29.88;;;27.20;74.40;;;;;;5126062;28;20023;-55
2022/03/25 05:49:56;;;;;;;32.75;29.65;;;27.20;74.50;;;;;;5126391;28;20026;-58
2022/03/25 05:52:22;;;;;;;32.45;29.17;;;27.20;73.60;;;;;;5125950;28;20073;-58
2022/03/25 05:54:49;;;;;;;31.90;28.60;;;27.20;73.80;;;;;;5125756;28;20027;-53
2022/03/25 05:57:16;;;;;;;31.90;28.67;;;27.20;73.60;;;;;;5125656;28;20032;-54
2022/03/25 05:59:43;;;;;;;31.88;28.95;;;27.20;73.50;;;;;;5126165;28;20045;-58
2022/03/25 06:02:10;;;;;;;32.92;28.95;;;27.20;73.60;;;;;;5125890;28;20083;-54
2022/03/25 06:04:36;;;;;;;31.70;28.60;;;27.20;73.30;;;;;;5125985;28;20032;-59
2022/03/25 06:07:04;;;;;;;30.77;27.67;;;27.20;73.30;;;;;;5125715;28;20030;-59
2022/03/25 06:09:31;;;;;;;30.85;27.55;;;27.20;73.30;;;;;;5125391;28;20242;-59
2022/03/25 06:11:57;;;;;;;30.17;27.15;;;27.20;73.00;;;;;;5125508;28;20019;-56
2022/03/25 06:14:27;;;;;;;31.40;28.20;;;27.20;73.00;;;;;;5125465;28;20086;-56
2022/03/25 06:16:53;;;;;;;30.30;27.48;;;27.20;72.90;;;;;;5125193;27;20031;-54
2022/03/25 06:19:20;;;;;;;31.58;28.67;;;27.20;73.00;;;;;;5125532;28;20019;-54
2022/03/25 06:21:47;;;;;;;31.60;27.92;;;27.20;72.80;;;;;;5125227;27;20050;-58
2022/03/25 06:24:13;;;;;;;31.15;27.95;;;27.20;72.90;;;;;;5124725;28;20079;-59
2022/03/25 06:26:40;;;;;;;31.05;27.95;;;27.20;73.10;;;;;;5124914;28;20369;-55
2022/03/25 06:29:09;;;;;;;31.70;28.70;;;27.20;72.90;;;;;;5125108;28;20033;-58
2022/03/25 06:31:36;;;;;;;31.05;27.85;;;27.20;73.50;;;;;;5124934;28;20106;-55
2022/03/25 06:34:03;;;;;;;32.17;29.15;;;27.20;73.60;;;;;;5125072;28;20058;-57
2022/03/25 06:36:33;;;;;;;30.67;27.42;;;27.20;73.40;;;;;;5124926;28;20210;-53
2022/03/25 06:38:59;;;;;;;33.20;28.60;;;27.20;73.30;;;;;;5124741;28;20099;-55
2022/03/25 06:41:26;;;;;;;31.17;27.90;;;27.20;73.40;;;;;;5124866;28;20022;-54
2022/03/25 06:43:52;;;;;;;35.33;28.70;;;27.20;73.60;;;;;;5124901;28;20015;-54
2022/03/25 06:46:19;;;;;;;31.27;28.08;;;27.20;73.90;;;;;;5124709;28;20040;-59
2022/03/25 06:48:46;;;;;;;31.30;28.25;;;27.20;73.60;;;;;;5124840;28;20039;-58
2022/03/25 06:51:13;;;;;;;30.17;27.25;;;27.20;73.80;;;;;;5124772;28;20327;-54
2022/03/25 06:53:39;;;;;;;32.22;28.85;;;27.10;73.40;;;;;;5124421;28;20012;-58
2022/03/25 06:56:06;;;;;;;32.97;28.92;;;27.10;73.40;;;;;;5124675;28;20026;-55
2022/03/25 06:58:36;;;;;;;32.15;28.90;;;27.10;73.50;;;;;;5124650;28;20027;-51
2022/03/25 07:01:03;;;;;;;31.45;28.50;;;27.20;73.80;;;;;;5124495;28;20087;-56
2022/03/25 07:03:29;;;;;;;32.33;28.77;;;27.10;73.40;;;;;;5124586;28;20077;-53
2022/03/25 07:06:00;;;;;;;31.75;28.40;;;27.10;73.30;;;;;;5115635;28;20028;-46
2022/03/25 07:08:29;;;;;;;32.08;28.67;;;27.10;73.40;;;;;;5105229;28;20086;-46
2022/03/25 07:10:56;;;;;;;32.47;29.17;;;27.20;73.10;;;;;;5113615;28;20039;-51
2022/03/25 07:13:23;;;;;;;34.17;30.10;;;27.20;73.40;;;;;;5112882;28;20023;-48
2022/03/25 07:15:49;;;;;;;34.40;30.48;;;27.20;73.70;;;;;;5103780;28;20125;-53
2022/03/25 07:18:16;;;;;;;32.65;29.30;;;27.20;73.40;;;;;;5104075;28;20022;-58
2022/03/25 07:20:43;;;;;;;33.22;29.98;;;27.20;73.10;;;;;;5104574;28;20304;-56
2022/03/25 07:23:09;;;;;;;33.88;30.27;;;27.20;73.20;;;;;;5103884;28;20043;-46
2022/03/25 07:25:37;;;;;;;34.00;30.60;;;27.20;73.20;;;;;;5104054;28;20406;-49
2022/03/25 07:28:04;;;;;;;33.40;30.02;;;27.20;72.90;;;;;;5103843;28;20043;-47
2022/03/25 07:30:30;;;;;;;34.25;30.77;;;27.20;72.90;;;;;;5104182;28;20087;-51
2022/03/25 07:32:58;;;;;;;34.22;30.95;;;27.20;72.70;;;;;;5104178;28;20126;-46
2022/03/25 07:35:25;;;;;;;34.15;30.75;;;27.20;72.90;;;;;;5103989;28;20044;-50
2022/03/25 07:37:52;;;;;;;34.88;30.80;;;27.20;72.80;;;;;;5107869;28;20038;-54
2022/03/25 07:40:19;;;;;;;34.00;30.48;;;27.20;72.60;;;;;;5108242;28;20123;-46
2022/03/25 07:42:46;;;;;;;35.22;31.42;;;27.20;72.40;;;;;;5107730;28;20091;-46
2022/03/25 07:45:14;;;;;;;34.55;31.25;;;27.20;72.20;;;;;;5108020;28;20020;-46
2022/03/25 07:47:45;;;;;;;34.15;30.63;;;27.20;72.40;;;;;;5107595;28;20032;-56
2022/03/25 07:50:16;;;;;;;34.00;30.70;;;27.20;72.20;;;;;;5108260;28;20023;-49
2022/03/25 07:52:43;;;;;;;35.63;32.03;;;27.20;72.30;;;;;;5107422;28;20028;-47
2022/03/25 07:55:10;;;;;;;34.20;31.00;;;27.20;72.50;;;;;;5089518;28;20095;-51
2022/03/25 07:57:38;;;;;;;33.88;30.45;;;27.20;72.40;;;;;;5107681;28;20048;-48
2022/03/25 08:00:11;;;;;;;33.53;30.40;;;27.20;72.60;;;;;;5107610;28;20032;-50
2022/03/25 08:02:39;;;;;;;34.55;31.05;;;27.20;72.50;;;;;;5107415;28;20334;-48
2022/03/25 08:05:09;;;;;;;32.95;29.45;;;27.20;72.30;;;;;;5107495;28;20079;-47
2022/03/25 08:08:02;;;;;;;32.47;29.27;;;27.20;72.20;;;;;;5107375;28;20027;-47
2022/03/25 08:10:31;;;;;;;33.70;30.40;;;27.20;72.40;;;;;;5105505;28;20042;-47
2022/03/25 08:12:58;;;;;;;32.47;29.20;;;27.20;72.90;;;;;;5107344;28;20028;-49
2022/03/25 08:15:27;;;;;;;32.33;29.15;;;27.20;72.60;;;;;;5107433;28;20327;-46
2022/03/25 08:18:05;;;;;;;34.05;30.65;;;27.20;72.90;;;;;;5106923;28;20028;-50
2022/03/25 08:20:47;;;;;;;32.65;29.52;;;27.20;73.10;;;;;;5107636;28;20093;-48
2022/03/25 08:28:50;;;;;;;32.15;29.05;;;27.20;72.90;;;;;;5107019;28;20338;-48
2022/03/25 08:31:18;;;;;;;32.08;29.02;;;27.20;72.40;;;;;;5106920;28;20043;-46
2022/03/25 08:33:45;;;;;;;31.63;28.42;;;27.10;72.80;;;;;;5106740;28;20087;-51
2022/03/25 08:36:11;;;;;;;32.33;28.92;;;27.20;72.50;;;;;;5106825;28;20024;-50
2022/03/25 08:38:38;;;;;;;32.00;28.80;;;27.10;72.70;;;;;;5106886;28;20115;-47
2022/03/25 08:41:05;;;;;;;32.30;29.20;;;27.20;72.80;;;;;;5106717;28;20024;-51
2022/03/25 08:43:31;;;;;;;30.95;27.73;;;27.20;72.70;;;;;;5106663;28;20032;-56
2022/03/25 08:45:58;;;;;;;31.08;28.20;;;27.10;72.70;;;;;;5106689;28;20024;-46
2022/03/25 08:48:25;;;;;;;30.98;27.67;;;27.10;72.50;;;;;;5105869;28;20303;-46
2022/03/25 08:50:51;;;;;;;31.20;28.20;;;27.10;72.70;;;;;;5106575;28;20019;-46
2022/03/25 08:53:18;;;;;;;31.75;28.52;;;27.10;72.40;;;;;;5106589;28;20085;-48
2022/03/25 08:55:45;;;;;;;30.92;27.90;;;27.10;72.50;;;;;;5106751;28;20043;-50
2022/03/25 08:58:13;;;;;;;29.27;26.58;;;27.20;72.60;;;;;;5106400;28;20375;-59
2022/03/25 09:00:39;;;;;;;31.17;28.13;;;27.20;72.70;;;;;;5106875;28;20253;-51
2022/03/25 09:03:06;;;;;;;31.67;28.52;;;27.10;72.80;;;;;;5106154;28;20020;-46
2022/03/25 09:05:33;;;;;;;30.95;27.80;;;27.10;72.80;;;;;;5106701;28;20196;-50
2022/03/25 09:07:59;;;;;;;30.50;27.60;;;27.10;73.40;;;;;;5106170;28;20035;-46
2022/03/25 09:10:26;;;;;;;30.13;27.17;;;27.10;73.20;;;;;;5106521;28;20027;-51
2022/03/25 09:12:53;;;;;;;31.20;28.00;;;27.10;73.40;;;;;;5105956;28;20036;-46
2022/03/25 09:15:19;;;;;;;31.15;28.30;;;27.10;73.50;;;;;;5106312;28;20249;-50
2022/03/25 09:17:46;;;;;;;31.63;28.60;;;27.10;73.70;;;;;;5105872;28;20028;-49
2022/03/25 09:20:14;;;;;;;31.20;27.83;;;27.10;74.20;;;;;;5106502;28;20028;-53
2022/03/25 09:22:41;;;;;;;31.45;28.45;;;27.10;73.80;;;;;;5105843;28;20038;-47
2022/03/25 09:25:09;;;;;;;32.00;28.67;;;27.10;73.60;;;;;;5105779;28;20020;-47
2022/03/25 09:27:37;;;;;;;33.72;30.48;;;27.10;73.70;;;;;;5105722;28;20265;-47
2022/03/25 09:30:10;;;;;;;32.53;29.20;;;27.10;74.00;;;;;;5106027;28;20315;-49
2022/03/25 09:32:36;;;;;;;32.90;29.73;;;27.10;73.80;;;;;;5105736;28;20051;-50
2022/03/25 09:35:09;;;;;;;33.83;30.40;;;27.00;73.70;;;;;;5105965;28;20308;-50
2022/03/25 09:37:43;;;;;;;32.63;29.50;;;27.10;74.20;;;;;;5105586;28;20031;-48
2022/03/25 09:40:21;;;;;;;33.40;30.27;;;27.00;73.90;;;;;;5105799;28;20252;-48
2022/03/25 09:42:50;;;;;;;32.85;29.38;;;27.00;73.70;;;;;;5105425;28;20086;-48
2022/03/25 09:45:19;;;;;;;36.72;30.20;;;27.00;73.90;;;;;;5105604;28;20304;-51
2022/03/25 09:47:47;;;;;;;33.97;30.23;;;27.00;73.80;;;;;;5105551;28;20208;-46
2022/03/25 09:50:17;;;;;;;34.75;31.17;;;27.00;74.00;;;;;;5105627;28;20028;-46
2022/03/25 09:52:45;;;;;;;34.97;31.60;;;27.00;74.10;;;;;;5105209;28;20514;-53
2022/03/25 09:55:13;;;;;;;35.08;31.42;;;27.00;74.20;;;;;;5105577;28;20069;-49
2022/03/25 09:57:41;;;;;;;35.25;31.90;;;27.00;74.70;;;;;;5105089;28;20043;-50
2022/03/25 10:00:13;;;;;;;34.65;31.35;;;27.00;74.80;;;;;;5104870;28;20433;-49
2022/03/25 10:02:39;;;;;;;34.78;31.48;;;27.00;74.60;;;;;;5104907;28;20016;-46
2022/03/25 10:05:20;;;;;;;35.97;31.35;;;27.00;74.70;;;;;;5105189;28;20028;-48
2022/03/25 10:07:51;;;;;;;35.97;32.35;;;27.00;75.40;;;;;;5086956;28;20043;-49
2022/03/25 10:10:21;;;;;;;35.35;31.92;;;26.90;75.80;;;;;;5105281;28;20375;-48
2022/03/25 10:13:04;;;;;;;34.10;30.92;;;26.90;75.60;;;;;;5104769;28;20032;-46
2022/03/25 10:15:39;;;;;;;36.05;32.33;;;26.90;75.10;;;;;;5105059;28;20308;-46
2022/03/25 10:18:07;;;;;;;35.17;31.52;;;26.90;75.20;;;;;;5104759;28;20220;-46
2022/03/25 10:20:37;;;;;;;35.53;31.77;;;26.90;75.10;;;;;;5105319;28;20354;-50
2022/03/25 10:23:15;;;;;;;35.55;31.77;;;26.90;74.90;;;;;;5104655;28;20239;-50
2022/03/25 10:25:48;;;;;;;34.80;31.55;;;26.90;75.00;;;;;;5104890;28;20075;-49
2022/03/25 10:28:22;;;;;;;36.05;32.42;;;26.90;75.40;;;;;;5104673;28;20036;-48
2022/03/25 10:30:53;;;;;;;36.15;32.45;;;26.90;75.40;;;;;;5104568;28;20078;-50
2022/03/25 10:33:21;;;;;;;37.08;33.38;;;26.90;75.40;;;;;;5104622;28;20035;-47
2022/03/25 10:35:56;;;;;;;36.17;32.60;;;26.90;75.80;;;;;;5104248;28;20032;-58
2022/03/25 10:38:23;;;;;;;34.67;31.10;;;26.90;75.30;;;;;;5104182;28;20054;-48
2022/03/25 10:40:57;;;;;;;35.97;32.25;;;26.90;75.40;;;;;;5096406;28;20385;-52
2022/03/25 10:43:25;;;;;;;37.25;33.33;;;26.90;75.50;;;;;;5104391;28;20030;-53
2022/03/25 10:45:52;;;;;;;36.38;32.78;;;26.90;75.90;;;;;;5104291;28;20273;-53
2022/03/25 10:48:21;;;;;;;37.53;33.58;;;26.90;75.60;;;;;;5104398;28;20397;-49
2022/03/25 10:51:08;;;;;;;34.80;31.08;;;26.90;75.70;;;;;;5104319;28;20035;-48
2022/03/25 10:53:37;;;;;;;36.33;32.45;;;26.90;75.20;;;;;;5103918;28;20133;-46
2022/03/25 10:56:10;;;;;;;35.85;32.13;;;26.90;75.40;;;;;;5104182;28;20028;-49
2022/03/25 10:58:37;;;;;;;35.10;31.48;;;26.80;75.50;;;;;;5104148;28;20047;-46
2022/03/25 11:01:08;;;;;;;34.95;31.50;;;26.90;75.50;;;;;;5103960;28;20020;-51
2022/03/25 11:03:36;;;;;;;34.33;31.10;;;26.80;75.20;;;;;;5104141;28;20219;-54
2022/03/25 11:06:04;;;;;;;33.88;30.35;;;26.80;74.90;;;;;;5104099;28;20103;-51
2022/03/25 11:08:31;;;;;;;34.33;31.02;;;26.80;75.30;;;;;;5103881;28;20051;-50
2022/03/25 11:10:59;;;;;;;35.80;30.45;;;26.70;75.30;;;;;;5103753;28;20024;-47
2022/03/25 11:13:26;;;;;;;34.38;30.98;;;26.80;75.50;;;;;;5103795;28;20071;-45
2022/03/25 11:15:55;;;;;;;42.40;31.27;;;26.80;75.60;;;;;;5103735;28;20036;-45
2022/03/25 11:18:22;;;;;;;35.08;30.63;;;26.80;75.70;;;;;;5103577;28;20020;-46
2022/03/25 11:20:52;;;;;;;34.95;30.45;;;26.80;75.50;;;;;;5104075;28;20056;-42
2022/03/25 11:23:30;;;;;;;36.67;29.75;;;26.80;75.20;;;;;;5103876;28;20058;-56
2022/03/25 11:26:01;;;;;;;34.72;30.02;;;26.80;75.20;;;;;;5103955;28;20255;-50
2022/03/25 11:28:33;;;;;;;33.80;29.80;;;26.80;75.20;;;;;;5103809;28;20016;-50
2022/03/25 11:31:02;;;;;;;33.60;30.02;;;26.90;75.40;;;;;;5103824;28;20224;-52
2022/03/25 11:33:29;;;;;;;36.08;29.45;;;26.90;75.40;;;;;;5103558;28;20031;-55
2022/03/25 11:36:19;;;;;;;32.47;29.30;;;26.90;75.50;;;;;;5103672;28;20158;-54
2022/03/25 11:38:45;;;;;;;31.70;28.48;;;26.90;75.60;;;;;;5103680;28;20083;-54
2022/03/25 11:41:26;;;;;;;33.17;29.77;;;26.90;75.70;;;;;;5103747;28;20047;-52
2022/03/25 11:44:25;;;;;;;35.83;29.27;;;26.80;75.70;;;;;;5103687;28;20230;-55
2022/03/25 11:47:01;;;;;;;33.58;29.98;;;26.90;75.90;;;;;;5070499;28;20250;-49
2022/03/25 11:49:29;;;;;;;33.10;29.33;;;26.90;76.30;;;;;;5103551;28;20304;-54
2022/03/25 11:51:57;;;;;;;33.45;29.98;;;26.90;76.40;;;;;;5103694;28;20035;-56
2022/03/25 11:54:37;;;;;;;34.45;30.90;;;26.90;76.70;;;;;;5103763;28;20031;-55
2022/03/25 11:57:21;;;;;;;33.00;29.58;;;26.80;77.20;;;;;;5103528;28;20032;-55
2022/03/25 11:59:53;;;;;;;34.20;30.42;;;26.80;77.40;;;;;;5103555;28;20016;-53
2022/03/25 12:02:43;;;;;;;34.50;30.90;;;26.80;78.00;;;;;;5103593;28;20051;-54
2022/03/25 12:05:37;;;;;;;37.30;31.40;;;26.80;77.70;;;;;;5103704;28;20215;-53
2022/03/25 12:08:22;;;;;;;36.50;31.45;;;26.80;78.00;;;;;;5101262;28;20046;-54
2022/03/25 12:10:50;;;;;;;38.13;32.10;;;26.80;78.30;;;;;;5103675;28;20028;-54
2022/03/25 12:13:17;;;;;;;38.17;31.80;;;26.80;78.20;;;;;;5103407;28;20071;-53
2022/03/25 12:15:46;;;;;;;35.13;31.48;;;26.80;78.40;;;;;;5103550;28;20034;-52
2022/03/25 12:18:44;;;;;;;34.47;31.08;;;26.80;78.80;;;;;;5103384;28;20032;-49
2022/03/25 12:21:31;;;;;;;42.67;31.02;;;26.80;79.10;;;;;;5103464;28;20369;-50
2022/03/25 12:23:59;;;;;;;47.60;32.33;;;26.80;78.80;;;;;;5106971;28;20052;-54
2022/03/25 12:26:32;;;;;;;50.25;34.20;;;26.80;78.80;;;;;;5106789;28;20511;-50
2022/03/25 12:29:00;;;;;;;42.22;33.67;;;26.80;79.10;;;;;;5106973;28;20024;-56
2022/03/25 12:31:26;;;;;;;40.65;33.67;;;26.70;79.20;;;;;;5106703;28;20095;-47
2022/03/25 12:34:00;;;;;;;37.20;33.15;;;26.70;79.30;;;;;;5106926;28;20024;-56
2022/03/25 12:36:52;;;;;;;37.10;32.95;;;26.70;79.40;;;;;;5106947;28;20028;-54
2022/03/25 12:39:18;;;;;;;37.10;32.92;;;26.80;79.60;;;;;;5107064;28;20024;-53
2022/03/25 12:41:51;;;;;;;36.70;32.88;;;26.80;79.70;;;;;;5106728;28;20028;-50